createdAt,value
2024-04-18T00:03:33.713Z,9
2024-04-18T00:08:49.686Z,10
2024-04-18T00:14:05.607Z,12
2024-04-18T00:19:21.352Z,11
2024-04-18T00:24:37.225Z,5
2024-04-18T00:29:52.953Z,5
2024-04-18T00:35:08.674Z,4
2024-04-18T00:40:24.549Z,8
2024-04-18T00:45:40.313Z,8
2024-04-18T00:50:56.309Z,10
2024-04-18T00:56:12.245Z,12
2024-04-18T01:01:28.086Z,7
2024-04-18T01:06:44.086Z,7
2024-04-18T01:11:58.896Z,9
2024-04-18T01:17:14.834Z,9
2024-04-18T01:22:30.465Z,10
2024-04-18T01:27:46.311Z,9
2024-04-18T01:33:02.205Z,9
2024-04-18T01:38:18.222Z,9
2024-04-18T01:43:34.225Z,8
2024-04-18T01:48:50.238Z,8
2024-04-18T01:54:06.357Z,9
2024-04-18T01:59:22.153Z,10
2024-04-18T02:04:37.818Z,8
2024-04-18T02:09:53.682Z,7
2024-04-18T02:15:09.263Z,10
2024-04-18T02:20:25.117Z,9
2024-04-18T02:25:41.045Z,9
2024-04-18T02:30:56.981Z,8
2024-04-18T02:36:12.965Z,9
2024-04-18T02:41:28.898Z,7
2024-04-18T02:46:44.696Z,7
2024-04-18T02:52:00.650Z,11
2024-04-18T02:57:16.572Z,10
2024-04-18T03:02:32.549Z,11
2024-04-18T03:07:48.454Z,8
2024-04-18T03:13:04.512Z,7
2024-04-18T03:18:20.587Z,10
2024-04-18T03:23:36.527Z,10
2024-04-18T03:28:52.359Z,9
2024-04-18T03:34:08.421Z,7
2024-04-18T03:39:23.987Z,8
2024-04-18T03:44:40.010Z,8
2024-04-18T03:49:55.675Z,8
2024-04-18T03:55:11.659Z,11
2024-04-18T04:00:27.469Z,13
2024-04-18T04:05:43.405Z,9
2024-04-18T04:10:59.270Z,9
2024-04-18T04:16:15.096Z,7
2024-04-18T04:21:31.054Z,9
2024-04-18T04:26:46.772Z,13
2024-04-18T04:32:02.352Z,10
2024-04-18T04:37:17.905Z,15
2024-04-18T04:42:34.022Z,18
2024-04-18T04:47:49.785Z,10
2024-04-18T04:53:05.797Z,12
2024-04-18T04:58:21.677Z,13
2024-04-18T05:03:37.803Z,10
2024-04-18T05:08:53.807Z,14
2024-04-18T05:14:09.453Z,7
2024-04-18T05:19:25.412Z,13
2024-04-18T05:24:40.940Z,18
2024-04-18T05:29:56.776Z,14
2024-04-18T05:35:12.542Z,27
2024-04-18T05:40:28.405Z,25
2024-04-18T05:45:44.338Z,18
2024-04-18T05:51:00.252Z,28
2024-04-18T05:56:16.076Z,21
2024-04-18T06:01:31.937Z,33
2024-04-18T06:06:47.552Z,26
2024-04-18T06:12:03.584Z,23
2024-04-18T06:17:19.161Z,35
2024-04-18T06:22:35.182Z,21
2024-04-18T06:27:51.130Z,27
2024-04-18T06:33:06.920Z,28
2024-04-18T06:38:22.564Z,29
2024-04-18T06:43:38.356Z,33
2024-04-18T06:48:53.852Z,22
2024-04-18T06:54:08.657Z,21
2024-04-18T06:59:24.456Z,25
2024-04-18T07:04:40.349Z,24
2024-04-18T07:10:05.377Z,25
2024-04-18T07:15:21.196Z,29
2024-04-18T07:20:37.286Z,22
2024-04-18T07:25:53.306Z,32
2024-04-18T07:31:09.105Z,32
2024-04-18T07:36:25.015Z,28
2024-04-18T07:41:40.973Z,32
2024-04-18T07:46:56.882Z,27
2024-04-18T07:52:12.779Z,30
2024-04-18T07:57:28.718Z,21
2024-04-18T08:02:44.614Z,20
2024-04-18T08:08:00.647Z,14
2024-04-18T08:13:16.525Z,29
2024-04-18T08:18:32.315Z,24
2024-04-18T08:23:48.216Z,29
2024-04-18T08:29:04.063Z,26
2024-04-18T08:34:19.876Z,24
2024-04-18T08:39:35.754Z,32
2024-04-18T08:44:51.580Z,30
2024-04-18T08:50:07.747Z,24
2024-04-18T08:55:23.884Z,29
2024-04-18T09:00:39.593Z,30
2024-04-18T09:05:55.408Z,24
2024-04-18T09:11:11.144Z,23
2024-04-18T09:16:26.888Z,39
2024-04-18T09:21:42.730Z,23
2024-04-18T09:26:58.576Z,46
2024-04-18T09:32:14.170Z,35
2024-04-18T09:37:29.806Z,35
2024-04-18T09:42:45.681Z,38
2024-04-18T09:48:01.658Z,26
2024-04-18T09:53:17.319Z,21
2024-04-18T09:58:33.166Z,30
2024-04-18T10:03:48.696Z,38
2024-04-18T10:09:04.363Z,41
2024-04-18T10:14:20.208Z,30
2024-04-18T10:19:35.985Z,23
2024-04-18T10:24:51.855Z,25
2024-04-18T10:30:08.077Z,33
2024-04-18T10:35:23.913Z,18
2024-04-18T10:40:39.712Z,32
2024-04-18T10:45:55.330Z,36
2024-04-18T10:51:11.024Z,24
2024-04-18T10:56:26.777Z,32
2024-04-18T11:01:42.627Z,40
2024-04-18T11:06:58.504Z,56
2024-04-18T11:12:14.415Z,34
2024-04-18T11:17:30.330Z,33
2024-04-18T11:22:46.275Z,25
2024-04-18T11:28:02.360Z,31
2024-04-18T11:33:18.580Z,30
2024-04-18T11:38:34.930Z,31
2024-04-18T11:43:50.647Z,33
2024-04-18T11:49:06.528Z,31
2024-04-18T11:54:22.499Z,35
2024-04-18T11:59:38.590Z,41
2024-04-18T12:04:54.443Z,34
2024-04-18T12:10:10.537Z,29
2024-04-18T12:15:26.510Z,24
2024-04-18T12:20:42.576Z,29
2024-04-18T12:25:58.428Z,29
2024-04-18T12:31:14.506Z,19
2024-04-18T12:36:30.126Z,18
2024-04-18T12:41:45.875Z,15
2024-04-18T12:47:00.159Z,32
2024-04-18T12:52:15.987Z,26
2024-04-18T12:57:31.460Z,24
2024-04-18T13:02:47.006Z,30
2024-04-18T13:13:18.683Z,37
2024-04-18T13:18:34.701Z,42
2024-04-18T13:23:50.457Z,30
2024-04-18T13:29:06.497Z,37
2024-04-18T13:35:11.726Z,30
2024-04-18T13:41:07.321Z,34
2024-04-18T13:47:03.062Z,32
2024-04-18T13:52:58.884Z,33
2024-04-18T13:58:54.689Z,35
2024-04-18T14:04:17.287Z,31
2024-04-18T14:09:40.079Z,41
2024-04-18T14:15:02.687Z,34
2024-04-18T14:20:25.494Z,39
2024-04-18T14:25:48.462Z,35
2024-04-18T14:31:11.473Z,42
2024-04-18T14:36:34.547Z,38
2024-04-18T14:41:57.115Z,37
2024-04-18T14:47:19.949Z,40
2024-04-18T14:52:42.580Z,43
2024-04-18T15:03:27.518Z,36
2024-04-18T15:08:50.241Z,38
2024-04-18T15:14:12.980Z,35
2024-04-18T15:19:35.458Z,34
2024-04-18T15:24:58.297Z,42
2024-04-18T15:30:20.789Z,37
2024-04-18T15:35:43.474Z,32
2024-04-18T15:41:06.335Z,38
2024-04-18T15:46:29.172Z,42
2024-04-18T15:52:09.153Z,29
2024-04-18T15:57:31.994Z,34
2024-04-18T16:02:54.842Z,35
2024-04-18T16:08:17.836Z,40
2024-04-18T16:13:40.641Z,47
2024-04-18T16:19:03.455Z,30
2024-04-18T16:24:26.291Z,28
2024-04-18T16:29:49.097Z,27
2024-04-18T16:35:29.152Z,25
2024-04-18T16:40:51.978Z,26
2024-04-18T16:46:14.627Z,28
2024-04-18T16:51:37.406Z,43
2024-04-18T16:57:00.223Z,28
2024-04-18T17:02:23.072Z,42
2024-04-18T17:07:46.003Z,37
2024-04-18T17:13:08.607Z,30
2024-04-18T17:18:31.485Z,47
2024-04-18T17:23:54.103Z,20
2024-04-18T17:29:17.004Z,21
2024-04-18T17:34:39.709Z,33
2024-04-18T17:40:02.261Z,30
2024-04-18T17:45:25.064Z,40
2024-04-18T17:50:47.863Z,29
2024-04-18T17:56:10.807Z,20
2024-04-18T18:01:33.259Z,32
2024-04-18T18:06:55.888Z,26
2024-04-18T18:12:18.875Z,19
2024-04-18T18:17:41.598Z,19
2024-04-18T18:23:04.271Z,19
2024-04-18T18:28:27.045Z,22
2024-04-18T18:33:50.159Z,27
2024-04-18T18:39:14.043Z,21
2024-04-18T18:50:00.152Z,17
2024-04-18T18:55:22.923Z,14
2024-04-18T19:00:45.478Z,15
2024-04-18T19:06:08.284Z,36
2024-04-18T19:11:31.198Z,27
2024-04-18T19:16:54.011Z,22
2024-04-18T19:22:16.834Z,17
2024-04-18T19:27:39.674Z,16
2024-04-18T19:33:02.622Z,19
2024-04-18T19:38:25.431Z,7
2024-04-18T19:43:48.328Z,11
2024-04-18T19:49:11.161Z,10
2024-04-18T19:54:33.820Z,12
2024-04-18T19:59:56.600Z,13
2024-04-18T20:05:19.218Z,8
2024-04-18T20:10:42.218Z,14
2024-04-18T20:16:05.115Z,11
2024-04-18T20:21:27.979Z,15
2024-04-18T20:26:50.883Z,9
2024-04-18T20:32:13.697Z,13
2024-04-18T20:37:36.678Z,16
2024-04-18T20:42:59.597Z,14
2024-04-18T20:48:22.600Z,13
2024-04-18T20:53:45.564Z,17
2024-04-18T20:59:08.445Z,17
2024-04-18T21:04:31.480Z,14
2024-04-18T21:09:54.449Z,18
2024-04-18T21:15:17.352Z,20
2024-04-18T21:20:40.350Z,18
2024-04-18T21:26:03.369Z,11
2024-04-18T21:31:26.374Z,10
2024-04-18T21:36:49.465Z,14
2024-04-18T21:42:12.500Z,15
2024-04-18T21:47:35.450Z,13
2024-04-18T21:52:58.233Z,12
2024-04-18T21:58:21.188Z,15
2024-04-18T22:03:44.197Z,10
2024-04-18T22:09:07.105Z,12
2024-04-18T22:14:30.231Z,12
2024-04-18T22:19:52.152Z,15
2024-04-18T22:25:14.920Z,12
2024-04-18T22:30:37.962Z,12
2024-04-18T22:36:00.636Z,11
2024-04-18T22:41:23.452Z,12
2024-04-18T22:46:46.574Z,10
2024-04-18T22:52:09.460Z,10
2024-04-18T22:57:32.437Z,7
2024-04-18T23:02:55.516Z,9
2024-04-18T23:08:18.403Z,13
2024-04-18T23:13:41.373Z,11
2024-04-18T23:19:04.288Z,7
2024-04-18T23:24:27.334Z,10
2024-04-18T23:29:50.306Z,8
2024-04-18T23:35:13.381Z,9
2024-04-18T23:40:36.211Z,8
2024-04-18T23:45:59.051Z,11
2024-04-18T23:51:22.150Z,12
2024-04-18T23:56:44.996Z,10
